sensor_id;sensor_type;location;lat;lon;timestamp;temperature;humidity
2062;DHT22;11070;51.336;12.340;2023-01-30T00:01:04;-0.90;99.90
2062;DHT22;11070;51.336;12.340;2023-01-30T00:03:30;-0.90;99.90
2062;DHT22;11070;51.336;12.340;2023-01-30T00:05:56;-0.90;1.00
2062;DHT22;11070;51.336;12.340;2023-01-30T00:08:22;-0.90;1.00
2062;DHT22;11070;51.336;12.340;2023-01-30T00:10:48;-0.90;1.00
2062;DHT22;11070;51.336;12.340;2023-01-30T00:13:14;-0.90;1.00
2062;DHT22;11070;51.336;12.340;2023-01-30T00:15:41;-0.90;1.00
2062;DHT22;11070;51.336;12.340;2023-01-30T00:18:06;-0.90;1.00
2062;DHT22;11070;51.336;12.340;2023-01-30T00:20:35;-0.80;1.00
2062;DHT22;11070;51.336;12.340;2023-01-30T00:23:01;-0.80;1.00
2062;DHT22;11070;51.336;12.340;2023-01-30T00:25:27;-0.80;1.00
2062;DHT22;11070;51.336;12.340;2023-01-30T00:27:54;-0.80;1.00
2062;DHT22;11070;51.336;12.340;2023-01-30T00:30:21;-0.70;1.00
2062;DHT22;11070;51.336;12.340;2023-01-30T00:32:46;-0.80;1.00
2062;DHT22;11070;51.336;12.340;2023-01-30T00:35:12;-0.80;99.90
2062;DHT22;11070;51.336;12.340;2023-01-30T00:37:38;-0.70;99.90
2062;DHT22;11070;51.336;12.340;2023-01-30T00:40:04;-0.70;1.00
2062;DHT22;11070;51.336;12.340;2023-01-30T00:42:30;-0.70;1.00
2062;DHT22;11070;51.336;12.340;2023-01-30T00:45:14;-0.80;1.30
2062;DHT22;11070;51.336;12.340;2023-01-30T00:47:59;-0.80;99.90
2062;DHT22;11070;51.336;12.340;2023-01-30T00:50:24;-0.80;1.00
2062;DHT22;11070;51.336;12.340;2023-01-30T00:53:10;-0.80;99.90
2062;DHT22;11070;51.336;12.340;2023-01-30T00:55:36;-0.80;99.90
2062;DHT22;11070;51.336;12.340;2023-01-30T00:58:02;-0.80;1.00
2062;DHT22;11070;51.336;12.340;2023-01-30T01:00:28;-0.80;1.00
2062;DHT22;11070;51.336;12.340;2023-01-30T01:02:53;-0.80;1.00
2062;DHT22;11070;51.336;12.340;2023-01-30T01:05:19;-0.80;1.00
2062;DHT22;11070;51.336;12.340;2023-01-30T01:07:45;-0.80;1.00
2062;DHT22;11070;51.336;12.340;2023-01-30T01:10:10;-0.80;96.00
2062;DHT22;11070;51.336;12.340;2023-01-30T01:12:41;-0.80;99.90
2062;DHT22;11070;51.336;12.340;2023-01-30T01:15:08;-0.80;99.90
2062;DHT22;11070;51.336;12.340;2023-01-30T01:17:34;-0.80;1.00
2062;DHT22;11070;51.336;12.340;2023-01-30T01:19:59;-0.80;1.00
2062;DHT22;11070;51.336;12.340;2023-01-30T01:22:25;-0.80;1.00
2062;DHT22;11070;51.336;12.340;2023-01-30T01:24:51;-0.70;1.00
2062;DHT22;11070;51.336;12.340;2023-01-30T01:27:16;-0.70;1.00
2062;DHT22;11070;51.336;12.340;2023-01-30T01:29:43;-0.60;1.00
2062;DHT22;11070;51.336;12.340;2023-01-30T01:32:09;-0.50;1.00
2062;DHT22;11070;51.336;12.340;2023-01-30T01:34:35;-0.50;1.00
2062;DHT22;11070;51.336;12.340;2023-01-30T01:37:00;-0.40;1.00
2062;DHT22;11070;51.336;12.340;2023-01-30T01:39:26;-0.40;1.00
2062;DHT22;11070;51.336;12.340;2023-01-30T01:42:12;-0.30;1.00
2062;DHT22;11070;51.336;12.340;2023-01-30T01:47:40;-0.30;1.00
2062;DHT22;11070;51.336;12.340;2023-01-30T01:50:18;-0.30;1.00
2062;DHT22;11070;51.336;12.340;2023-01-30T01:52:45;-0.30;1.00
2062;DHT22;11070;51.336;12.340;2023-01-30T01:55:13;-0.30;1.00
2062;DHT22;11070;51.336;12.340;2023-01-30T01:57:42;-0.40;1.00
2062;DHT22;11070;51.336;12.340;2023-01-30T02:00:13;-0.40;47.10
2062;DHT22;11070;51.336;12.340;2023-01-30T02:03:00;-0.30;99.90
2062;DHT22;11070;51.336;12.340;2023-01-30T02:05:33;-0.30;99.90
2062;DHT22;11070;51.336;12.340;2023-01-30T02:08:09;-0.20;99.90
2062;DHT22;11070;51.336;12.340;2023-01-30T02:13:09;-0.20;99.90
2062;DHT22;11070;51.336;12.340;2023-01-30T02:15:35;-0.10;77.40
2062;DHT22;11070;51.336;12.340;2023-01-30T02:18:01;-0.10;99.90
2062;DHT22;11070;51.336;12.340;2023-01-30T02:21:12;-0.10;99.90
2062;DHT22;11070;51.336;12.340;2023-01-30T02:48:16;0.20;1.00
2062;DHT22;11070;51.336;12.340;2023-01-30T02:50:46;0.20;1.00
2062;DHT22;11070;51.336;12.340;2023-01-30T02:53:14;0.30;1.00
2062;DHT22;11070;51.336;12.340;2023-01-30T02:55:41;0.30;1.00
2062;DHT22;11070;51.336;12.340;2023-01-30T02:58:07;0.30;1.00
2062;DHT22;11070;51.336;12.340;2023-01-30T03:04:00;0.40;1.00
2062;DHT22;11070;51.336;12.340;2023-01-30T03:11:59;0.40;1.00
2062;DHT22;11070;51.336;12.340;2023-01-30T03:14:31;0.50;1.00
2062;DHT22;11070;51.336;12.340;2023-01-30T03:16:59;0.60;1.00
2062;DHT22;11070;51.336;12.340;2023-01-30T03:19:28;0.60;1.00
2062;DHT22;11070;51.336;12.340;2023-01-30T03:21:55;0.70;1.00
2062;DHT22;11070;51.336;12.340;2023-01-30T03:24:20;0.70;1.00
2062;DHT22;11070;51.336;12.340;2023-01-30T03:26:52;0.80;1.00
2062;DHT22;11070;51.336;12.340;2023-01-30T03:29:19;0.80;1.00
2062;DHT22;11070;51.336;12.340;2023-01-30T03:31:44;0.90;1.00
2062;DHT22;11070;51.336;12.340;2023-01-30T03:34:10;0.90;1.00
2062;DHT22;11070;51.336;12.340;2023-01-30T03:36:36;1.00;1.00
2062;DHT22;11070;51.336;12.340;2023-01-30T03:39:02;1.10;99.90
2062;DHT22;11070;51.336;12.340;2023-01-30T03:41:28;1.10;99.90
2062;DHT22;11070;51.336;12.340;2023-01-30T03:43:53;1.20;99.90
2062;DHT22;11070;51.336;12.340;2023-01-30T03:46:19;1.30;99.90
2062;DHT22;11070;51.336;12.340;2023-01-30T03:48:45;1.30;99.90
2062;DHT22;11070;51.336;12.340;2023-01-30T03:51:10;1.40;99.90
2062;DHT22;11070;51.336;12.340;2023-01-30T03:53:36;1.50;99.90
2062;DHT22;11070;51.336;12.340;2023-01-30T03:56:02;1.50;99.90
2062;DHT22;11070;51.336;12.340;2023-01-30T03:58:27;1.60;99.90
2062;DHT22;11070;51.336;12.340;2023-01-30T04:00:55;1.70;99.90
2062;DHT22;11070;51.336;12.340;2023-01-30T04:03:22;1.70;86.40
2062;DHT22;11070;51.336;12.340;2023-01-30T04:05:47;1.70;47.50
2062;DHT22;11070;51.336;12.340;2023-01-30T04:08:13;1.80;1.00
2062;DHT22;11070;51.336;12.340;2023-01-30T04:13:05;1.90;1.00
2062;DHT22;11070;51.336;12.340;2023-01-30T04:15:30;1.90;1.00
2062;DHT22;11070;51.336;12.340;2023-01-30T04:17:56;1.90;1.00
2062;DHT22;11070;51.336;12.340;2023-01-30T04:20:22;1.90;1.00
2062;DHT22;11070;51.336;12.340;2023-01-30T04:22:47;2.00;1.00
2062;DHT22;11070;51.336;12.340;2023-01-30T04:25:13;2.00;1.00
2062;DHT22;11070;51.336;12.340;2023-01-30T04:27:39;2.00;1.00
2062;DHT22;11070;51.336;12.340;2023-01-30T04:30:05;2.00;1.00
2062;DHT22;11070;51.336;12.340;2023-01-30T04:32:31;2.10;1.00
2062;DHT22;11070;51.336;12.340;2023-01-30T04:34:56;2.10;1.00
2062;DHT22;11070;51.336;12.340;2023-01-30T04:37:22;2.10;1.00
2062;DHT22;11070;51.336;12.340;2023-01-30T04:39:48;2.10;31.10
2062;DHT22;11070;51.336;12.340;2023-01-30T04:42:14;2.10;99.90
2062;DHT22;11070;51.336;12.340;2023-01-30T04:44:39;2.20;99.90
2062;DHT22;11070;51.336;12.340;2023-01-30T04:47:05;2.10;99.90
2062;DHT22;11070;51.336;12.340;2023-01-30T04:49:30;2.20;99.90
2062;DHT22;11070;51.336;12.340;2023-01-30T04:51:56;2.20;99.90
2062;DHT22;11070;51.336;12.340;2023-01-30T04:54:22;2.30;99.90
2062;DHT22;11070;51.336;12.340;2023-01-30T04:56:48;2.30;99.90
2062;DHT22;11070;51.336;12.340;2023-01-30T04:59:13;2.40;99.90
2062;DHT22;11070;51.336;12.340;2023-01-30T05:01:39;2.60;99.90
2062;DHT22;11070;51.336;12.340;2023-01-30T05:04:06;2.60;99.90
2062;DHT22;11070;51.336;12.340;2023-01-30T05:06:32;2.60;99.90
2062;DHT22;11070;51.336;12.340;2023-01-30T05:08:59;2.70;99.90
2062;DHT22;11070;51.336;12.340;2023-01-30T05:11:26;2.70;99.90
2062;DHT22;11070;51.336;12.340;2023-01-30T05:13:52;2.70;99.90
2062;DHT22;11070;51.336;12.340;2023-01-30T05:16:19;2.70;99.90
2062;DHT22;11070;51.336;12.340;2023-01-30T05:18:48;2.70;99.90
2062;DHT22;11070;51.336;12.340;2023-01-30T05:21:17;2.70;99.90
2062;DHT22;11070;51.336;12.340;2023-01-30T05:23:43;2.70;99.90
2062;DHT22;11070;51.336;12.340;2023-01-30T05:26:13;2.80;99.90
2062;DHT22;11070;51.336;12.340;2023-01-30T05:28:40;2.80;99.90
2062;DHT22;11070;51.336;12.340;2023-01-30T05:31:13;2.80;99.90
2062;DHT22;11070;51.336;12.340;2023-01-30T05:33:39;2.80;99.90
2062;DHT22;11070;51.336;12.340;2023-01-30T05:36:06;2.80;99.90
2062;DHT22;11070;51.336;12.340;2023-01-30T05:38:31;2.80;99.90
2062;DHT22;11070;51.336;12.340;2023-01-30T05:41:04;2.70;99.90
2062;DHT22;11070;51.336;12.340;2023-01-30T05:43:32;2.70;99.90
2062;DHT22;11070;51.336;12.340;2023-01-30T05:45:59;2.70;99.90
2062;DHT22;11070;51.336;12.340;2023-01-30T05:48:25;2.70;99.90
2062;DHT22;11070;51.336;12.340;2023-01-30T05:50:51;2.70;1.00
2062;DHT22;11070;51.336;12.340;2023-01-30T05:53:22;2.70;1.00
2062;DHT22;11070;51.336;12.340;2023-01-30T05:55:58;2.70;1.00
2062;DHT22;11070;51.336;12.340;2023-01-30T05:58:25;2.70;1.00
2062;DHT22;11070;51.336;12.340;2023-01-30T06:00:51;2.60;1.00
2062;DHT22;11070;51.336;12.340;2023-01-30T06:03:17;2.60;1.00
2062;DHT22;11070;51.336;12.340;2023-01-30T06:05:43;2.50;1.00
2062;DHT22;11070;51.336;12.340;2023-01-30T06:08:08;2.50;1.00
2062;DHT22;11070;51.336;12.340;2023-01-30T06:10:35;2.50;1.00
2062;DHT22;11070;51.336;12.340;2023-01-30T06:13:01;2.50;1.00
2062;DHT22;11070;51.336;12.340;2023-01-30T06:15:27;2.50;1.00
2062;DHT22;11070;51.336;12.340;2023-01-30T06:17:53;2.50;1.00
2062;DHT22;11070;51.336;12.340;2023-01-30T06:20:19;2.50;1.00
2062;DHT22;11070;51.336;12.340;2023-01-30T06:22:44;2.50;1.00
2062;DHT22;11070;51.336;12.340;2023-01-30T06:25:10;2.50;1.00
2062;DHT22;11070;51.336;12.340;2023-01-30T06:27:36;2.60;1.00
2062;DHT22;11070;51.336;12.340;2023-01-30T06:30:02;2.60;1.00
2062;DHT22;11070;51.336;12.340;2023-01-30T06:32:28;2.70;1.00
2062;DHT22;11070;51.336;12.340;2023-01-30T06:34:53;2.80;1.00
2062;DHT22;11070;51.336;12.340;2023-01-30T06:37:19;2.90;1.00
2062;DHT22;11070;51.336;12.340;2023-01-30T06:39:45;2.90;1.00
2062;DHT22;11070;51.336;12.340;2023-01-30T06:42:10;3.00;1.00
2062;DHT22;11070;51.336;12.340;2023-01-30T06:44:36;3.00;1.00
2062;DHT22;11070;51.336;12.340;2023-01-30T06:47:02;3.10;1.00
2062;DHT22;11070;51.336;12.340;2023-01-30T06:49:27;3.10;1.00
2062;DHT22;11070;51.336;12.340;2023-01-30T06:51:53;3.10;1.00
2062;DHT22;11070;51.336;12.340;2023-01-30T06:54:18;3.10;1.00
2062;DHT22;11070;51.336;12.340;2023-01-30T06:56:44;3.10;1.00
2062;DHT22;11070;51.336;12.340;2023-01-30T06:59:10;3.10;1.00
2062;DHT22;11070;51.336;12.340;2023-01-30T07:01:35;3.20;1.00
2062;DHT22;11070;51.336;12.340;2023-01-30T07:04:02;3.20;1.00
2062;DHT22;11070;51.336;12.340;2023-01-30T07:06:27;3.30;1.00
2062;DHT22;11070;51.336;12.340;2023-01-30T07:08:53;3.30;1.00
2062;DHT22;11070;51.336;12.340;2023-01-30T07:11:25;3.30;1.00
2062;DHT22;11070;51.336;12.340;2023-01-30T07:13:51;3.30;1.00
2062;DHT22;11070;51.336;12.340;2023-01-30T07:16:17;3.30;1.00
2062;DHT22;11070;51.336;12.340;2023-01-30T07:18:43;3.40;1.00
2062;DHT22;11070;51.336;12.340;2023-01-30T07:21:08;3.30;1.00
2062;DHT22;11070;51.336;12.340;2023-01-30T07:23:34;3.20;1.00
2062;DHT22;11070;51.336;12.340;2023-01-30T07:26:04;3.20;1.00
2062;DHT22;11070;51.336;12.340;2023-01-30T07:28:30;3.10;1.00
2062;DHT22;11070;51.336;12.340;2023-01-30T07:30:58;3.10;1.00
2062;DHT22;11070;51.336;12.340;2023-01-30T07:33:24;3.10;1.00
2062;DHT22;11070;51.336;12.340;2023-01-30T07:35:50;3.20;1.00
2062;DHT22;11070;51.336;12.340;2023-01-30T07:38:15;3.20;1.00
2062;DHT22;11070;51.336;12.340;2023-01-30T07:40:41;3.20;1.00
2062;DHT22;11070;51.336;12.340;2023-01-30T07:43:09;3.20;1.00
2062;DHT22;11070;51.336;12.340;2023-01-30T07:48:05;3.30;1.00
2062;DHT22;11070;51.336;12.340;2023-01-30T07:50:31;3.30;1.00
2062;DHT22;11070;51.336;12.340;2023-01-30T07:52:56;3.30;1.00
2062;DHT22;11070;51.336;12.340;2023-01-30T07:55:22;3.30;1.00
2062;DHT22;11070;51.336;12.340;2023-01-30T07:57:48;3.30;1.00
2062;DHT22;11070;51.336;12.340;2023-01-30T08:00:14;3.30;1.00
2062;DHT22;11070;51.336;12.340;2023-01-30T08:02:43;3.40;1.00
2062;DHT22;11070;51.336;12.340;2023-01-30T08:05:08;3.40;1.00
2062;DHT22;11070;51.336;12.340;2023-01-30T08:07:34;3.40;1.00
2062;DHT22;11070;51.336;12.340;2023-01-30T08:10:00;3.40;1.00
2062;DHT22;11070;51.336;12.340;2023-01-30T08:12:28;3.50;1.00
2062;DHT22;11070;51.336;12.340;2023-01-30T08:14:54;3.50;1.00
2062;DHT22;11070;51.336;12.340;2023-01-30T08:17:20;3.60;1.00
2062;DHT22;11070;51.336;12.340;2023-01-30T08:19:46;3.60;1.00
2062;DHT22;11070;51.336;12.340;2023-01-30T08:22:12;3.60;1.00
2062;DHT22;11070;51.336;12.340;2023-01-30T08:24:38;3.60;1.00
2062;DHT22;11070;51.336;12.340;2023-01-30T08:27:03;3.70;1.00
2062;DHT22;11070;51.336;12.340;2023-01-30T08:29:29;3.70;1.00
2062;DHT22;11070;51.336;12.340;2023-01-30T08:31:58;3.70;1.00
2062;DHT22;11070;51.336;12.340;2023-01-30T08:34:24;3.80;1.00
2062;DHT22;11070;51.336;12.340;2023-01-30T08:36:50;3.90;1.00
2062;DHT22;11070;51.336;12.340;2023-01-30T08:39:15;3.90;1.00
2062;DHT22;11070;51.336;12.340;2023-01-30T08:41:41;3.90;1.00
2062;DHT22;11070;51.336;12.340;2023-01-30T08:44:11;4.00;1.00
2062;DHT22;11070;51.336;12.340;2023-01-30T08:46:37;4.10;1.00
2062;DHT22;11070;51.336;12.340;2023-01-30T08:49:04;4.00;1.00
2062;DHT22;11070;51.336;12.340;2023-01-30T08:51:30;4.20;1.00
2062;DHT22;11070;51.336;12.340;2023-01-30T08:53:56;4.20;99.90
2062;DHT22;11070;51.336;12.340;2023-01-30T08:56:22;4.20;99.90
2062;DHT22;11070;51.336;12.340;2023-01-30T08:58:47;4.20;99.90
2062;DHT22;11070;51.336;12.340;2023-01-30T09:01:14;4.20;99.90
2062;DHT22;11070;51.336;12.340;2023-01-30T09:03:40;4.30;99.90
2062;DHT22;11070;51.336;12.340;2023-01-30T09:06:07;4.30;99.90
2062;DHT22;11070;51.336;12.340;2023-01-30T09:08:33;4.50;99.90
2062;DHT22;11070;51.336;12.340;2023-01-30T09:11:00;4.80;99.90
2062;DHT22;11070;51.336;12.340;2023-01-30T09:13:26;5.20;1.00
2062;DHT22;11070;51.336;12.340;2023-01-30T09:15:53;5.00;99.90
2062;DHT22;11070;51.336;12.340;2023-01-30T09:18:19;4.80;99.90
2062;DHT22;11070;51.336;12.340;2023-01-30T09:23:11;4.60;1.00
2062;DHT22;11070;51.336;12.340;2023-01-30T09:25:37;4.70;1.00
2062;DHT22;11070;51.336;12.340;2023-01-30T09:28:03;4.70;1.00
2062;DHT22;11070;51.336;12.340;2023-01-30T09:30:28;4.70;1.00
2062;DHT22;11070;51.336;12.340;2023-01-30T09:32:54;4.70;99.90
2062;DHT22;11070;51.336;12.340;2023-01-30T09:35:20;4.80;99.90
2062;DHT22;11070;51.336;12.340;2023-01-30T09:37:50;4.80;99.90
2062;DHT22;11070;51.336;12.340;2023-01-30T09:40:20;4.80;99.90
2062;DHT22;11070;51.336;12.340;2023-01-30T09:45:40;4.70;99.90
2062;DHT22;11070;51.336;12.340;2023-01-30T09:48:20;4.70;99.90
2062;DHT22;11070;51.336;12.340;2023-01-30T09:55:59;4.60;1.00
2062;DHT22;11070;51.336;12.340;2023-01-30T09:58:48;4.60;1.00
2062;DHT22;11070;51.336;12.340;2023-01-30T10:01:26;4.50;72.40
2062;DHT22;11070;51.336;12.340;2023-01-30T10:21:34;4.30;1.00
2062;DHT22;11070;51.336;12.340;2023-01-30T10:26:40;4.40;99.90
2062;DHT22;11070;51.336;12.340;2023-01-30T10:29:27;4.30;99.90
2062;DHT22;11070;51.336;12.340;2023-01-30T10:32:17;4.30;1.00
2062;DHT22;11070;51.336;12.340;2023-01-30T10:34:53;4.30;1.00
2062;DHT22;11070;51.336;12.340;2023-01-30T10:37:29;4.20;1.00
2062;DHT22;11070;51.336;12.340;2023-01-30T10:45:14;4.20;1.00
2062;DHT22;11070;51.336;12.340;2023-01-30T10:47:43;4.20;1.00
2062;DHT22;11070;51.336;12.340;2023-01-30T10:50:18;4.20;1.00
2062;DHT22;11070;51.336;12.340;2023-01-30T10:56:01;4.20;1.00
2062;DHT22;11070;51.336;12.340;2023-01-30T10:58:55;4.30;1.00
2062;DHT22;11070;51.336;12.340;2023-01-30T11:07:09;4.30;1.00
2062;DHT22;11070;51.336;12.340;2023-01-30T11:09:41;4.30;1.00
2062;DHT22;11070;51.336;12.340;2023-01-30T11:12:06;4.40;1.00
2062;DHT22;11070;51.336;12.340;2023-01-30T11:15:02;4.40;1.00
2062;DHT22;11070;51.336;12.340;2023-01-30T11:17:39;4.40;1.00
2062;DHT22;11070;51.336;12.340;2023-01-30T11:20:21;4.50;99.90
2062;DHT22;11070;51.336;12.340;2023-01-30T11:23:05;4.50;99.90
2062;DHT22;11070;51.336;12.340;2023-01-30T11:25:50;4.50;99.90
2062;DHT22;11070;51.336;12.340;2023-01-30T11:28:16;4.50;99.90
2062;DHT22;11070;51.336;12.340;2023-01-30T11:30:48;4.50;99.90
2062;DHT22;11070;51.336;12.340;2023-01-30T11:33:17;4.50;99.90
2062;DHT22;11070;51.336;12.340;2023-01-30T11:35:53;4.50;99.90
2062;DHT22;11070;51.336;12.340;2023-01-30T11:38:25;4.70;99.90
2062;DHT22;11070;51.336;12.340;2023-01-30T11:41:12;5.90;1.00
2062;DHT22;11070;51.336;12.340;2023-01-30T11:43:42;5.90;1.00
2062;DHT22;11070;51.336;12.340;2023-01-30T11:46:09;6.60;1.00
2062;DHT22;11070;51.336;12.340;2023-01-30T11:48:46;6.60;1.00
2062;DHT22;11070;51.336;12.340;2023-01-30T11:51:13;6.00;1.00
2062;DHT22;11070;51.336;12.340;2023-01-30T11:53:44;5.40;1.00
2062;DHT22;11070;51.336;12.340;2023-01-30T11:56:38;5.40;1.00
2062;DHT22;11070;51.336;12.340;2023-01-30T12:02:18;5.30;99.90
2062;DHT22;11070;51.336;12.340;2023-01-30T12:04:46;5.40;25.20
2062;DHT22;11070;51.336;12.340;2023-01-30T12:07:22;5.50;1.00
2062;DHT22;11070;51.336;12.340;2023-01-30T12:09:48;5.40;99.90
2062;DHT22;11070;51.336;12.340;2023-01-30T12:12:39;5.50;1.00
2062;DHT22;11070;51.336;12.340;2023-01-30T12:15:27;5.40;1.00
2062;DHT22;11070;51.336;12.340;2023-01-30T12:21:01;5.20;53.50
2062;DHT22;11070;51.336;12.340;2023-01-30T12:25:57;5.60;99.90
2062;DHT22;11070;51.336;12.340;2023-01-30T12:31:41;6.60;1.00
2062;DHT22;11070;51.336;12.340;2023-01-30T12:34:09;7.20;16.90
2062;DHT22;11070;51.336;12.340;2023-01-30T12:43:07;6.60;1.00
2062;DHT22;11070;51.336;12.340;2023-01-30T12:45:58;6.50;1.00
2062;DHT22;11070;51.336;12.340;2023-01-30T13:00:03;6.20;99.90
2062;DHT22;11070;51.336;12.340;2023-01-30T13:05:37;6.30;1.00
2062;DHT22;11070;51.336;12.340;2023-01-30T13:08:32;6.10;1.00
2062;DHT22;11070;51.336;12.340;2023-01-30T13:14:44;7.30;1.00
2062;DHT22;11070;51.336;12.340;2023-01-30T13:25:40;6.80;99.90
2062;DHT22;11070;51.336;12.340;2023-01-30T13:28:23;6.70;99.90
2062;DHT22;11070;51.336;12.340;2023-01-30T13:30:51;6.50;1.00
2062;DHT22;11070;51.336;12.340;2023-01-30T13:33:39;6.30;99.90
2062;DHT22;11070;51.336;12.340;2023-01-30T13:36:24;6.00;1.00
2062;DHT22;11070;51.336;12.340;2023-01-30T13:39:11;5.90;1.00
2062;DHT22;11070;51.336;12.340;2023-01-30T13:41:46;5.80;1.00
2062;DHT22;11070;51.336;12.340;2023-01-30T13:44:26;5.80;99.90
2062;DHT22;11070;51.336;12.340;2023-01-30T13:47:00;5.80;36.80
2062;DHT22;11070;51.336;12.340;2023-01-30T13:50:04;5.70;71.30
2062;DHT22;11070;51.336;12.340;2023-01-30T13:55:38;5.60;99.90
2062;DHT22;11070;51.336;12.340;2023-01-30T14:00:57;5.50;1.00
2062;DHT22;11070;51.336;12.340;2023-01-30T14:10:54;5.50;1.00
2062;DHT22;11070;51.336;12.340;2023-01-30T14:13:21;5.60;99.90
2062;DHT22;11070;51.336;12.340;2023-01-30T14:15:56;5.60;1.00
2062;DHT22;11070;51.336;12.340;2023-01-30T14:18:27;5.70;1.00
2062;DHT22;11070;51.336;12.340;2023-01-30T14:21:16;5.70;1.00
2062;DHT22;11070;51.336;12.340;2023-01-30T14:23:59;5.70;1.00
2062;DHT22;11070;51.336;12.340;2023-01-30T14:46:05;5.40;1.00
2062;DHT22;11070;51.336;12.340;2023-01-30T14:53:48;5.30;1.00
2062;DHT22;11070;51.336;12.340;2023-01-30T14:56:15;5.30;99.90
2062;DHT22;11070;51.336;12.340;2023-01-30T14:58:54;5.20;99.90
2062;DHT22;11070;51.336;12.340;2023-01-30T15:01:21;5.20;1.00
2062;DHT22;11070;51.336;12.340;2023-01-30T15:03:48;5.10;1.00
2062;DHT22;11070;51.336;12.340;2023-01-30T15:06:15;5.10;1.00
2062;DHT22;11070;51.336;12.340;2023-01-30T15:08:41;5.00;1.00
2062;DHT22;11070;51.336;12.340;2023-01-30T15:11:21;5.00;1.00
2062;DHT22;11070;51.336;12.340;2023-01-30T15:32:41;5.10;99.90
2062;DHT22;11070;51.336;12.340;2023-01-30T15:37:38;5.00;7.00
2062;DHT22;11070;51.336;12.340;2023-01-30T15:50:20;5.00;99.90
2062;DHT22;11070;51.336;12.340;2023-01-30T15:52:48;5.00;99.90
2062;DHT22;11070;51.336;12.340;2023-01-30T15:55:25;5.00;99.90
2062;DHT22;11070;51.336;12.340;2023-01-30T15:57:58;5.00;99.90
2062;DHT22;11070;51.336;12.340;2023-01-30T16:00:36;5.00;99.90
2062;DHT22;11070;51.336;12.340;2023-01-30T16:03:10;4.90;99.90
2062;DHT22;11070;51.336;12.340;2023-01-30T16:05:36;5.00;99.90
2062;DHT22;11070;51.336;12.340;2023-01-30T16:08:11;4.90;99.90
2062;DHT22;11070;51.336;12.340;2023-01-30T16:10:45;4.90;99.90
2062;DHT22;11070;51.336;12.340;2023-01-30T16:13:11;4.90;99.90
2062;DHT22;11070;51.336;12.340;2023-01-30T16:15:51;5.00;81.00
2062;DHT22;11070;51.336;12.340;2023-01-30T16:21:09;5.00;1.00
2062;DHT22;11070;51.336;12.340;2023-01-30T16:23:49;4.90;1.00
2062;DHT22;11070;51.336;12.340;2023-01-30T16:26:17;4.90;1.00
2062;DHT22;11070;51.336;12.340;2023-01-30T16:28:50;4.90;1.00
2062;DHT22;11070;51.336;12.340;2023-01-30T16:31:17;5.00;99.90
2062;DHT22;11070;51.336;12.340;2023-01-30T16:33:52;4.90;99.90
2062;DHT22;11070;51.336;12.340;2023-01-30T16:38:47;4.80;99.90
2062;DHT22;11070;51.336;12.340;2023-01-30T16:41:38;4.80;99.90
2062;DHT22;11070;51.336;12.340;2023-01-30T16:44:20;4.80;1.00
2062;DHT22;11070;51.336;12.340;2023-01-30T16:49:39;4.80;1.00
2062;DHT22;11070;51.336;12.340;2023-01-30T16:52:21;4.80;1.00
2062;DHT22;11070;51.336;12.340;2023-01-30T16:57:26;4.60;1.00
2062;DHT22;11070;51.336;12.340;2023-01-30T16:59:56;4.60;42.30
2062;DHT22;11070;51.336;12.340;2023-01-30T17:02:36;4.50;99.90
2062;DHT22;11070;51.336;12.340;2023-01-30T17:05:17;4.50;99.90
2062;DHT22;11070;51.336;12.340;2023-01-30T17:07:44;4.50;99.90
2062;DHT22;11070;51.336;12.340;2023-01-30T17:10:46;4.40;99.90
2062;DHT22;11070;51.336;12.340;2023-01-30T17:18:45;4.50;99.90
2062;DHT22;11070;51.336;12.340;2023-01-30T17:21:12;4.50;99.90
2062;DHT22;11070;51.336;12.340;2023-01-30T17:23:44;4.50;99.90
2062;DHT22;11070;51.336;12.340;2023-01-30T17:26:11;4.50;99.90
2062;DHT22;11070;51.336;12.340;2023-01-30T17:28:41;4.60;99.90
2062;DHT22;11070;51.336;12.340;2023-01-30T17:31:10;4.60;99.90
2062;DHT22;11070;51.336;12.340;2023-01-30T17:33:36;4.50;99.90
2062;DHT22;11070;51.336;12.340;2023-01-30T17:36:04;4.50;99.90
2062;DHT22;11070;51.336;12.340;2023-01-30T17:38:31;4.50;99.90
2062;DHT22;11070;51.336;12.340;2023-01-30T17:40:57;4.50;99.90
2062;DHT22;11070;51.336;12.340;2023-01-30T17:43:23;4.50;99.90
2062;DHT22;11070;51.336;12.340;2023-01-30T17:45:49;4.60;99.90
2062;DHT22;11070;51.336;12.340;2023-01-30T17:48:14;4.60;99.90
2062;DHT22;11070;51.336;12.340;2023-01-30T17:50:40;4.60;99.90
2062;DHT22;11070;51.336;12.340;2023-01-30T17:53:06;4.60;99.90
2062;DHT22;11070;51.336;12.340;2023-01-30T17:55:32;4.50;99.90
2062;DHT22;11070;51.336;12.340;2023-01-30T17:57:58;4.50;99.90
2062;DHT22;11070;51.336;12.340;2023-01-30T18:00:24;4.40;99.90
2062;DHT22;11070;51.336;12.340;2023-01-30T18:02:50;4.40;99.90
2062;DHT22;11070;51.336;12.340;2023-01-30T18:05:16;4.30;99.90
2062;DHT22;11070;51.336;12.340;2023-01-30T18:07:42;4.30;99.90
2062;DHT22;11070;51.336;12.340;2023-01-30T18:10:18;4.30;99.90
2062;DHT22;11070;51.336;12.340;2023-01-30T18:12:44;4.30;99.90
2062;DHT22;11070;51.336;12.340;2023-01-30T18:15:13;4.30;99.90
2062;DHT22;11070;51.336;12.340;2023-01-30T18:17:47;4.30;99.90
2062;DHT22;11070;51.336;12.340;2023-01-30T18:20:16;4.30;99.20
2062;DHT22;11070;51.336;12.340;2023-01-30T18:22:42;4.30;92.10
2062;DHT22;11070;51.336;12.340;2023-01-30T18:25:08;4.30;99.90
2062;DHT22;11070;51.336;12.340;2023-01-30T18:27:38;4.30;99.90
2062;DHT22;11070;51.336;12.340;2023-01-30T18:30:04;4.40;99.90
2062;DHT22;11070;51.336;12.340;2023-01-30T18:32:30;4.50;1.00
2062;DHT22;11070;51.336;12.340;2023-01-30T18:34:56;4.60;1.00
2062;DHT22;11070;51.336;12.340;2023-01-30T18:37:21;4.50;1.00
2062;DHT22;11070;51.336;12.340;2023-01-30T18:39:50;4.50;1.00
2062;DHT22;11070;51.336;12.340;2023-01-30T18:42:15;4.50;1.00
2062;DHT22;11070;51.336;12.340;2023-01-30T18:44:41;4.50;1.00
2062;DHT22;11070;51.336;12.340;2023-01-30T18:47:06;4.40;1.00
2062;DHT22;11070;51.336;12.340;2023-01-30T18:49:32;4.50;1.00
2062;DHT22;11070;51.336;12.340;2023-01-30T18:52:05;4.40;1.00
2062;DHT22;11070;51.336;12.340;2023-01-30T18:54:33;4.50;1.00
2062;DHT22;11070;51.336;12.340;2023-01-30T18:57:01;4.50;1.00
2062;DHT22;11070;51.336;12.340;2023-01-30T18:59:27;4.50;1.00
2062;DHT22;11070;51.336;12.340;2023-01-30T19:01:53;4.40;1.00
2062;DHT22;11070;51.336;12.340;2023-01-30T19:04:18;4.40;1.00
2062;DHT22;11070;51.336;12.340;2023-01-30T19:06:44;4.40;1.00
2062;DHT22;11070;51.336;12.340;2023-01-30T19:09:15;4.40;1.00
2062;DHT22;11070;51.336;12.340;2023-01-30T19:11:41;4.40;1.00
2062;DHT22;11070;51.336;12.340;2023-01-30T19:14:25;4.50;99.90
2062;DHT22;11070;51.336;12.340;2023-01-30T19:16:51;4.60;99.90
2062;DHT22;11070;51.336;12.340;2023-01-30T19:19:17;4.60;1.00
2062;DHT22;11070;51.336;12.340;2023-01-30T19:21:43;4.60;1.00
2062;DHT22;11070;51.336;12.340;2023-01-30T19:24:14;4.70;98.40
2062;DHT22;11070;51.336;12.340;2023-01-30T19:26:43;4.70;99.90
2062;DHT22;11070;51.336;12.340;2023-01-30T19:29:09;4.70;99.90
2062;DHT22;11070;51.336;12.340;2023-01-30T19:31:35;4.70;99.90
2062;DHT22;11070;51.336;12.340;2023-01-30T19:34:01;4.70;99.90
2062;DHT22;11070;51.336;12.340;2023-01-30T19:36:33;4.70;99.90
2062;DHT22;11070;51.336;12.340;2023-01-30T19:39:00;4.70;1.00
2062;DHT22;11070;51.336;12.340;2023-01-30T19:41:35;4.80;1.00
2062;DHT22;11070;51.336;12.340;2023-01-30T19:44:02;4.80;1.00
2062;DHT22;11070;51.336;12.340;2023-01-30T19:46:31;4.80;1.00